createdAt,value
2023-05-11T00:00:12.547Z,543.00
2023-05-11T00:01:12.529Z,541.00
2023-05-11T00:02:12.558Z,538.00
2023-05-11T00:03:12.765Z,540.00
2023-05-11T00:04:12.531Z,540.00
2023-05-11T00:05:12.475Z,536.00
2023-05-11T00:06:12.473Z,536.00
2023-05-11T00:07:12.467Z,535.00
2023-05-11T00:08:14.225Z,535.00
2023-05-11T00:09:12.450Z,534.00
2023-05-11T00:10:12.435Z,537.00
2023-05-11T00:11:12.425Z,538.00
2023-05-11T00:12:12.409Z,539.00
2023-05-11T00:13:12.384Z,540.00
2023-05-11T00:14:12.385Z,539.00
2023-05-11T00:15:12.357Z,536.00
2023-05-11T00:16:12.376Z,535.00
2023-05-11T00:17:12.326Z,535.00
2023-05-11T00:18:12.335Z,534.00
2023-05-11T00:19:12.347Z,532.00
2023-05-11T00:20:12.298Z,535.00
2023-05-11T00:21:12.284Z,533.00
2023-05-11T00:22:12.279Z,531.00
2023-05-11T00:23:12.266Z,532.00
2023-05-11T00:24:12.254Z,530.00
2023-05-11T00:25:12.234Z,529.00
2023-05-11T00:26:12.233Z,527.00
2023-05-11T00:27:12.197Z,526.00
2023-05-11T00:28:12.230Z,527.00
2023-05-11T00:29:12.173Z,527.00
2023-05-11T00:30:12.177Z,527.00
2023-05-11T00:31:12.230Z,525.00
2023-05-11T00:32:12.127Z,525.00
2023-05-11T00:33:12.107Z,521.00
2023-05-11T00:34:12.095Z,523.00
2023-05-11T00:35:12.072Z,522.00
2023-05-11T00:36:12.068Z,521.00
2023-05-11T00:37:12.057Z,521.00
2023-05-11T00:38:12.036Z,518.00
2023-05-11T00:39:12.008Z,519.00
2023-05-11T00:40:11.995Z,517.00
2023-05-11T00:41:12.005Z,515.00
2023-05-11T00:42:11.976Z,516.00
2023-05-11T00:43:11.970Z,518.00
2023-05-11T00:44:11.985Z,518.00
2023-05-11T00:45:11.949Z,519.00
2023-05-11T00:46:11.939Z,521.00
2023-05-11T00:47:11.965Z,523.00
2023-05-11T00:48:11.910Z,522.00
2023-05-11T00:49:11.924Z,520.00
2023-05-11T00:50:11.902Z,521.00
2023-05-11T00:51:11.893Z,519.00
2023-05-11T00:52:11.898Z,520.00
2023-05-11T00:53:11.842Z,520.00
2023-05-11T00:54:11.922Z,521.00
2023-05-11T00:55:11.830Z,521.00
2023-05-11T00:56:11.860Z,522.00
2023-05-11T00:57:11.813Z,522.00
2023-05-11T00:58:11.785Z,522.00
2023-05-11T00:59:11.806Z,524.00
2023-05-11T01:00:11.806Z,523.00
2023-05-11T01:01:11.757Z,522.00
2023-05-11T01:02:11.785Z,523.00
2023-05-11T01:03:11.736Z,522.00
2023-05-11T01:04:11.774Z,521.00
2023-05-11T01:05:11.656Z,518.00
2023-05-11T01:06:11.702Z,518.00
2023-05-11T01:07:11.726Z,518.00
2023-05-11T01:08:11.755Z,515.00
2023-05-11T01:09:11.745Z,514.00
2023-05-11T01:10:11.646Z,516.00
2023-05-11T01:11:11.748Z,517.00
2023-05-11T01:12:11.551Z,518.00
2023-05-11T01:13:11.518Z,520.00
2023-05-11T01:14:11.513Z,519.00
2023-05-11T01:15:11.490Z,521.00
2023-05-11T01:16:11.585Z,522.00
2023-05-11T01:17:11.461Z,522.00
2023-05-11T01:18:11.499Z,521.00
2023-05-11T01:19:11.648Z,521.00
2023-05-11T01:20:11.415Z,518.00
2023-05-11T01:21:11.412Z,518.00
2023-05-11T01:22:11.433Z,517.00
2023-05-11T01:23:11.403Z,516.00
2023-05-11T01:24:11.439Z,515.00
2023-05-11T01:25:11.353Z,515.00
2023-05-11T01:26:11.428Z,518.00
2023-05-11T01:27:11.339Z,516.00
2023-05-11T01:28:11.332Z,515.00
2023-05-11T01:29:11.334Z,514.00
2023-05-11T01:30:11.317Z,512.00
2023-05-11T01:31:11.372Z,512.00
2023-05-11T01:32:11.343Z,513.00
2023-05-11T01:33:11.326Z,513.00
2023-05-11T01:34:11.302Z,512.00
2023-05-11T01:35:11.290Z,511.00
2023-05-11T01:36:11.266Z,511.00
2023-05-11T01:37:11.245Z,510.00
2023-05-11T01:38:11.233Z,511.00
2023-05-11T01:39:11.246Z,508.00
2023-05-11T01:40:11.213Z,508.00
2023-05-11T01:41:11.221Z,505.00
2023-05-11T01:42:11.254Z,505.00
2023-05-11T01:43:11.261Z,506.00
2023-05-11T01:44:11.305Z,507.00
2023-05-11T01:45:11.341Z,507.00
2023-05-11T01:46:11.387Z,508.00
2023-05-11T01:47:11.382Z,507.00
2023-05-11T01:48:11.363Z,507.00
2023-05-11T01:49:11.362Z,506.00
2023-05-11T01:50:11.384Z,505.00
2023-05-11T01:51:11.365Z,505.00
2023-05-11T01:52:11.382Z,505.00
2023-05-11T01:53:11.344Z,507.00
2023-05-11T01:54:11.356Z,508.00
2023-05-11T01:55:11.349Z,509.00
2023-05-11T01:56:11.354Z,509.00
2023-05-11T01:57:11.329Z,509.00
2023-05-11T01:58:11.329Z,508.00
2023-05-11T01:59:11.330Z,507.00
2023-05-11T02:00:11.338Z,507.00
2023-05-11T02:01:11.314Z,505.00
2023-05-11T02:02:11.309Z,507.00
2023-05-11T02:03:11.450Z,509.00
2023-05-11T02:04:11.279Z,509.00
2023-05-11T02:05:11.271Z,507.00
2023-05-11T02:06:11.263Z,503.00
2023-05-11T02:07:11.245Z,503.00
2023-05-11T02:08:11.234Z,501.00
2023-05-11T02:09:11.228Z,500.00
2023-05-11T02:10:11.272Z,502.00
2023-05-11T02:11:11.207Z,502.00
2023-05-11T02:12:11.193Z,501.00
2023-05-11T02:13:11.170Z,501.00
2023-05-11T02:14:11.169Z,500.00
2023-05-11T02:15:11.162Z,497.00
2023-05-11T02:16:11.186Z,494.00
2023-05-11T02:17:11.179Z,496.00
2023-05-11T02:18:11.116Z,495.00
2023-05-11T02:19:11.141Z,498.00
2023-05-11T02:20:11.097Z,494.00
2023-05-11T02:21:11.117Z,496.00
2023-05-11T02:22:11.084Z,495.00
2023-05-11T02:23:11.060Z,496.00
2023-05-11T02:24:11.047Z,497.00
2023-05-11T02:25:11.065Z,499.00
2023-05-11T02:26:11.029Z,497.00
2023-05-11T02:27:11.021Z,498.00
2023-05-11T02:28:11.004Z,496.00
2023-05-11T02:29:11.005Z,493.00
2023-05-11T02:30:11.020Z,495.00
2023-05-11T02:31:11.016Z,493.00
2023-05-11T02:32:10.950Z,491.00
2023-05-11T02:33:10.967Z,490.00
2023-05-11T02:34:10.922Z,492.00
2023-05-11T02:35:10.944Z,491.00
2023-05-11T02:36:10.951Z,490.00
2023-05-11T02:37:10.892Z,490.00
2023-05-11T02:38:10.862Z,491.00
2023-05-11T02:39:10.872Z,491.00
2023-05-11T02:40:10.873Z,493.00
2023-05-11T02:41:10.851Z,493.00
2023-05-11T02:42:10.864Z,494.00
2023-05-11T02:43:10.927Z,494.00
2023-05-11T02:44:10.866Z,492.00
2023-05-11T02:45:10.770Z,492.00
2023-05-11T02:46:10.817Z,495.00
2023-05-11T02:47:10.793Z,495.00
2023-05-11T02:48:10.829Z,496.00
2023-05-11T02:49:10.704Z,498.00
2023-05-11T02:50:10.706Z,500.00
2023-05-11T02:51:10.667Z,499.00
2023-05-11T02:52:10.666Z,496.00
2023-05-11T02:53:10.624Z,499.00
2023-05-11T02:54:10.680Z,502.00
2023-05-11T02:55:10.603Z,503.00
2023-05-11T02:56:10.628Z,501.00
2023-05-11T02:57:10.589Z,503.00
2023-05-11T02:58:10.600Z,505.00
2023-05-11T02:59:10.625Z,503.00
2023-05-11T03:00:10.584Z,503.00
2023-05-11T03:01:11.451Z,504.00
2023-05-11T03:02:10.609Z,503.00
2023-05-11T03:03:10.597Z,501.00
2023-05-11T03:04:10.502Z,500.00
2023-05-11T03:05:10.523Z,495.00
2023-05-11T03:06:10.481Z,492.00
2023-05-11T03:07:10.510Z,490.00
2023-05-11T03:08:10.497Z,493.00
2023-05-11T03:09:10.627Z,494.00
2023-05-11T03:10:10.464Z,499.00
2023-05-11T03:11:10.435Z,500.00
2023-05-11T03:12:10.448Z,503.00
2023-05-11T03:13:10.462Z,503.00
2023-05-11T03:14:10.414Z,504.00
2023-05-11T03:15:10.401Z,503.00
2023-05-11T03:16:10.408Z,501.00
2023-05-11T03:17:10.382Z,499.00
2023-05-11T03:18:10.378Z,500.00
2023-05-11T03:19:10.367Z,498.00
2023-05-11T03:20:10.371Z,496.00
2023-05-11T03:21:10.381Z,490.00
2023-05-11T03:22:10.363Z,491.00
2023-05-11T03:23:10.354Z,491.00
2023-05-11T03:24:10.342Z,491.00
2023-05-11T03:25:10.327Z,489.00
2023-05-11T03:26:10.305Z,491.00
2023-05-11T03:27:10.305Z,491.00
2023-05-11T03:28:10.295Z,491.00
2023-05-11T03:29:10.283Z,491.00
2023-05-11T03:30:10.283Z,492.00
2023-05-11T03:31:10.279Z,491.00
2023-05-11T03:32:10.290Z,493.00
2023-05-11T03:33:10.314Z,492.00
2023-05-11T03:34:10.245Z,493.00
2023-05-11T03:35:10.218Z,492.00
2023-05-11T03:36:10.215Z,493.00
2023-05-11T03:37:10.190Z,494.00
2023-05-11T03:38:10.182Z,494.00
2023-05-11T03:39:10.173Z,497.00
2023-05-11T03:40:10.212Z,495.00
2023-05-11T03:41:10.173Z,495.00
2023-05-11T03:42:10.167Z,494.00
2023-05-11T03:43:10.123Z,492.00
2023-05-11T03:44:10.126Z,489.00
2023-05-11T03:45:10.131Z,489.00
2023-05-11T03:46:10.123Z,487.00
2023-05-11T03:47:10.092Z,485.00
2023-05-11T03:48:10.072Z,482.00
2023-05-11T03:49:12.199Z,482.00
2023-05-11T03:50:10.061Z,482.00
2023-05-11T03:51:10.036Z,479.00
2023-05-11T03:52:10.044Z,480.00
2023-05-11T03:53:10.029Z,480.00
2023-05-11T03:54:10.010Z,477.00
2023-05-11T03:55:09.998Z,481.00
2023-05-11T03:56:09.983Z,483.00
2023-05-11T03:57:09.977Z,483.00
2023-05-11T03:58:09.968Z,483.00
2023-05-11T03:59:09.949Z,486.00
2023-05-11T04:00:09.957Z,486.00
2023-05-11T04:01:09.956Z,487.00
2023-05-11T04:02:09.941Z,486.00
2023-05-11T04:03:10.052Z,486.00
2023-05-11T04:04:09.924Z,484.00
2023-05-11T04:05:09.888Z,484.00
2023-05-11T04:06:09.860Z,480.00
2023-05-11T04:07:09.860Z,478.00
2023-05-11T04:08:09.855Z,478.00
2023-05-11T04:09:09.827Z,479.00
2023-05-11T04:10:09.861Z,479.00
2023-05-11T04:11:09.794Z,478.00
2023-05-11T04:12:09.780Z,478.00
2023-05-11T04:13:09.780Z,479.00
2023-05-11T04:14:09.790Z,475.00
2023-05-11T04:15:09.749Z,474.00
2023-05-11T04:16:09.809Z,475.00
2023-05-11T04:17:09.735Z,476.00
2023-05-11T04:18:09.752Z,477.00
2023-05-11T04:19:09.723Z,475.00
2023-05-11T04:20:09.800Z,474.00
2023-05-11T04:21:09.714Z,474.00
2023-05-11T04:22:09.715Z,473.00
2023-05-11T04:23:10.431Z,472.00
2023-05-11T04:24:09.678Z,472.00
2023-05-11T04:25:09.685Z,471.00
2023-05-11T04:26:09.662Z,469.00
2023-05-11T04:27:09.668Z,468.00
2023-05-11T04:28:09.654Z,468.00
2023-05-11T04:29:09.664Z,468.00
2023-05-11T04:30:09.654Z,467.00
2023-05-11T04:31:09.659Z,469.00
2023-05-11T04:32:09.638Z,466.00
2023-05-11T04:33:09.631Z,467.00
2023-05-11T04:34:09.623Z,467.00
2023-05-11T04:35:09.613Z,465.00
2023-05-11T04:36:09.623Z,463.00
2023-05-11T04:37:09.584Z,465.00
2023-05-11T04:38:09.580Z,465.00
2023-05-11T04:39:09.581Z,463.00
2023-05-11T04:40:09.607Z,462.00
2023-05-11T04:41:09.628Z,461.00
2023-05-11T04:42:09.666Z,461.00
2023-05-11T04:43:09.659Z,461.00
2023-05-11T04:44:09.676Z,459.00
2023-05-11T04:45:09.701Z,460.00
2023-05-11T04:46:09.708Z,460.00
2023-05-11T04:47:09.797Z,462.00
2023-05-11T04:48:09.760Z,461.00
2023-05-11T04:49:09.762Z,463.00
2023-05-11T04:50:09.775Z,462.00
2023-05-11T04:51:09.803Z,460.00
2023-05-11T04:52:09.815Z,460.00
2023-05-11T04:53:09.840Z,460.00
2023-05-11T04:54:09.861Z,460.00
2023-05-11T04:55:09.884Z,462.00
2023-05-11T04:56:09.895Z,462.00
2023-05-11T04:57:09.917Z,462.00
2023-05-11T04:58:09.934Z,464.00
2023-05-11T04:59:09.955Z,462.00
2023-05-11T05:00:10.009Z,460.00
2023-05-11T05:01:10.013Z,461.00
2023-05-11T05:02:10.031Z,459.00
2023-05-11T05:03:10.101Z,458.00
2023-05-11T05:04:10.136Z,458.00
2023-05-11T05:05:10.112Z,460.00
2023-05-11T05:06:10.104Z,460.00
2023-05-11T05:07:10.104Z,463.00
2023-05-11T05:08:10.073Z,463.00
2023-05-11T05:09:10.057Z,461.00
2023-05-11T05:10:10.081Z,462.00
2023-05-11T05:11:10.038Z,462.00
2023-05-11T05:12:10.035Z,463.00
2023-05-11T05:13:10.046Z,463.00
2023-05-11T05:14:09.998Z,462.00
2023-05-11T05:15:10.003Z,464.00
2023-05-11T05:16:10.095Z,461.00
2023-05-11T05:17:10.046Z,462.00
2023-05-11T05:18:10.021Z,461.00
2023-05-11T05:19:09.995Z,461.00
2023-05-11T05:20:09.953Z,460.00
2023-05-11T05:21:09.995Z,459.00
2023-05-11T05:22:10.006Z,457.00
2023-05-11T05:23:10.037Z,458.00
2023-05-11T05:24:10.064Z,460.00
2023-05-11T05:25:10.106Z,460.00
2023-05-11T05:26:10.125Z,460.00
2023-05-11T05:27:10.152Z,459.00
2023-05-11T05:28:10.175Z,459.00
2023-05-11T05:29:10.210Z,456.00
2023-05-11T05:30:10.253Z,456.00
2023-05-11T05:31:10.294Z,454.00
2023-05-11T05:32:10.283Z,454.00
2023-05-11T05:33:10.384Z,451.00
2023-05-11T05:34:10.373Z,450.00
2023-05-11T05:35:10.472Z,451.00
2023-05-11T05:36:10.408Z,455.00
2023-05-11T05:37:10.444Z,462.00
2023-05-11T05:38:10.457Z,479.00
2023-05-11T05:39:10.605Z,488.00
2023-05-11T05:40:10.483Z,499.00
2023-05-11T05:41:10.502Z,547.00
2023-05-11T05:42:10.521Z,567.00
2023-05-11T05:43:10.457Z,573.00
2023-05-11T05:44:10.441Z,587.00
2023-05-11T05:45:12.441Z,631.00
2023-05-11T05:46:10.475Z,720.00
2023-05-11T05:47:10.409Z,746.00
2023-05-11T05:48:10.470Z,817.00
2023-05-11T05:49:10.451Z,853.00
2023-05-11T05:50:10.407Z,867.00
2023-05-11T05:51:10.404Z,840.00
2023-05-11T05:52:10.387Z,875.00
2023-05-11T05:53:10.409Z,931.00
2023-05-11T05:54:10.389Z,948.00
2023-05-11T05:55:10.354Z,969.00
2023-05-11T05:56:10.451Z,995.00
2023-05-11T05:57:10.397Z,1001.00
2023-05-11T05:58:10.336Z,1067.00
2023-05-11T05:59:10.327Z,1069.00
2023-05-11T06:00:10.307Z,1068.00
2023-05-11T06:01:10.331Z,1113.00
2023-05-11T06:02:10.299Z,1138.00
2023-05-11T06:03:10.452Z,1140.00
2023-05-11T06:04:10.430Z,1172.00
2023-05-11T06:05:10.269Z,1193.00
2023-05-11T06:06:10.271Z,1219.00
2023-05-11T06:07:10.280Z,1230.00
2023-05-11T06:08:11.327Z,1240.00
2023-05-11T06:09:10.272Z,1260.00
2023-05-11T06:10:10.295Z,1263.00
2023-05-11T06:11:10.243Z,1254.00
2023-05-11T06:12:10.295Z,1250.00
2023-05-11T06:13:10.207Z,1293.00
2023-05-11T06:14:10.232Z,1309.00
2023-05-11T06:15:10.190Z,1342.00
2023-05-11T06:16:10.240Z,1381.00
2023-05-11T06:17:10.249Z,1401.00
2023-05-11T06:18:10.254Z,1434.00
2023-05-11T06:19:10.378Z,1452.00
2023-05-11T06:20:10.140Z,1473.00
2023-05-11T06:21:10.128Z,1425.00
2023-05-11T06:22:10.109Z,1430.00
2023-05-11T06:23:10.104Z,1453.00
2023-05-11T06:24:10.080Z,1539.00
2023-05-11T06:25:10.092Z,1540.00
2023-05-11T06:26:10.080Z,1541.00
2023-05-11T06:27:10.049Z,1553.00
2023-05-11T06:28:10.038Z,1569.00
2023-05-11T06:29:10.051Z,1618.00
2023-05-11T06:30:10.060Z,1624.00
2023-05-11T06:31:10.091Z,1636.00
2023-05-11T06:32:10.042Z,1656.00
2023-05-11T06:33:10.008Z,1591.00
2023-05-11T06:34:09.992Z,1621.00
2023-05-11T06:35:10.017Z,1623.00
2023-05-11T06:36:10.036Z,1635.00
2023-05-11T06:37:10.027Z,1663.00
2023-05-11T06:38:10.033Z,1726.00
2023-05-11T06:39:10.069Z,1745.00
2023-05-11T06:40:10.064Z,1833.00
2023-05-11T06:41:10.183Z,1826.00
2023-05-11T06:42:10.065Z,1811.00
2023-05-11T06:43:10.073Z,1823.00
2023-05-11T06:44:10.094Z,1679.00
2023-05-11T06:45:10.135Z,1664.00
2023-05-11T06:46:10.234Z,1531.00
2023-05-11T06:47:10.069Z,1638.00
2023-05-11T06:48:10.133Z,1596.00
2023-05-11T06:49:10.109Z,1616.00
2023-05-11T06:50:10.065Z,1614.00
2023-05-11T06:51:10.057Z,1626.00
2023-05-11T06:52:10.012Z,1640.00
2023-05-11T06:53:09.982Z,1644.00
2023-05-11T06:54:09.963Z,1587.00
2023-05-11T06:55:09.936Z,1622.00
2023-05-11T06:56:09.973Z,1613.00
2023-05-11T06:57:09.978Z,1597.00
2023-05-11T06:58:09.906Z,1597.00
2023-05-11T06:59:09.889Z,1594.00
2023-05-11T07:00:09.895Z,1587.00
2023-05-11T07:01:09.972Z,1589.00
2023-05-11T07:02:09.895Z,1599.00
2023-05-11T07:03:09.916Z,1605.00
2023-05-11T07:04:09.860Z,1616.00
2023-05-11T07:05:09.876Z,1632.00
2023-05-11T07:06:09.777Z,1620.00
2023-05-11T07:07:09.767Z,1627.00
2023-05-11T07:08:09.757Z,1630.00
2023-05-11T07:09:09.721Z,1639.00
2023-05-11T07:10:09.730Z,1642.00
2023-05-11T07:11:09.712Z,1624.00
2023-05-11T07:12:09.685Z,1605.00
2023-05-11T07:13:09.701Z,1605.00
2023-05-11T07:14:09.687Z,1608.00
2023-05-11T07:15:09.662Z,1607.00
2023-05-11T07:16:09.641Z,1599.00
2023-05-11T07:17:09.656Z,1549.00
2023-05-11T07:18:09.659Z,1530.00
2023-05-11T07:19:09.685Z,1537.00
2023-05-11T07:20:09.598Z,1525.00
2023-05-11T07:21:09.619Z,1507.00
2023-05-11T07:22:09.582Z,1490.00
2023-05-11T07:23:09.597Z,1470.00
2023-05-11T07:24:09.641Z,1458.00
2023-05-11T07:25:09.677Z,1452.00
2023-05-11T07:26:09.711Z,1434.00
2023-05-11T07:27:09.748Z,1408.00
2023-05-11T07:28:09.742Z,1375.00
2023-05-11T07:29:09.723Z,1382.00
2023-05-11T07:30:09.708Z,1390.00
2023-05-11T07:31:09.730Z,1443.00
2023-05-11T07:32:09.654Z,1430.00
2023-05-11T07:33:09.757Z,1441.00
2023-05-11T07:34:09.614Z,1498.00
2023-05-11T07:35:09.642Z,1497.00
2023-05-11T07:36:09.589Z,1507.00
2023-05-11T07:37:09.608Z,1560.00
2023-05-11T07:38:09.556Z,1216.00
2023-05-11T07:39:09.745Z,1386.00
2023-05-11T07:40:09.561Z,1543.00
2023-05-11T07:41:12.334Z,1555.00
2023-05-11T07:42:09.549Z,1403.00
2023-05-11T07:43:09.558Z,1301.00
2023-05-11T07:44:09.510Z,1188.00
2023-05-11T07:45:09.513Z,1277.00
2023-05-11T07:46:09.560Z,1297.00
2023-05-11T07:47:09.506Z,1383.00
2023-05-11T07:48:09.521Z,1390.00
2023-05-11T07:49:17.270Z,1393.00
2023-05-11T07:50:10.446Z,1443.00
2023-05-11T07:51:09.467Z,1451.00
2023-05-11T07:52:09.423Z,1447.00
2023-05-11T07:53:09.378Z,1367.00
2023-05-11T07:54:09.367Z,1523.00
2023-05-11T07:55:09.365Z,1444.00
2023-05-11T07:56:09.347Z,1473.00
2023-05-11T07:57:09.314Z,1449.00
2023-05-11T07:58:09.330Z,1456.00
2023-05-11T07:59:09.282Z,1454.00
2023-05-11T08:00:10.908Z,1444.00
2023-05-11T08:01:09.281Z,1422.00
2023-05-11T08:02:11.469Z,1410.00
2023-05-11T08:03:09.303Z,1406.00
2023-05-11T08:04:09.162Z,1412.00
2023-05-11T08:05:09.140Z,1410.00
2023-05-11T08:06:09.145Z,1403.00
2023-05-11T08:07:09.239Z,1394.00
2023-05-11T08:08:09.102Z,1369.00
2023-05-11T08:09:09.107Z,1403.00
2023-05-11T08:10:09.054Z,1437.00
2023-05-11T08:11:09.064Z,1433.00
2023-05-11T08:12:09.075Z,1326.00
2023-05-11T08:13:09.028Z,1334.00
2023-05-11T08:14:09.078Z,1303.00
2023-05-11T08:15:09.041Z,1324.00
2023-05-11T08:16:09.150Z,1280.00
2023-05-11T08:17:08.957Z,1044.00
2023-05-11T08:18:08.967Z,1018.00
2023-05-11T08:19:09.009Z,1158.00
2023-05-11T08:20:08.911Z,1303.00
2023-05-11T08:21:08.904Z,1322.00
2023-05-11T08:22:08.869Z,1329.00
2023-05-11T08:23:08.869Z,1332.00
2023-05-11T08:24:08.874Z,1367.00
2023-05-11T08:25:08.822Z,1350.00
2023-05-11T08:26:08.807Z,1355.00
2023-05-11T08:27:08.786Z,1363.00
2023-05-11T08:28:08.755Z,1332.00
2023-05-11T08:29:08.716Z,1306.00
2023-05-11T08:30:10.843Z,1286.00
2023-05-11T08:31:08.712Z,1266.00
2023-05-11T08:32:08.681Z,1287.00
2023-05-11T08:33:25.909Z,1282.00
2023-05-11T08:34:18.161Z,1283.00
2023-05-11T08:35:09.743Z,1304.00
2023-05-11T08:36:08.727Z,1214.00
2023-05-11T08:37:08.625Z,1199.00
2023-05-11T08:38:08.601Z,1188.00
2023-05-11T08:39:08.579Z,1182.00
2023-05-11T08:40:08.568Z,1162.00
2023-05-11T08:41:08.572Z,1143.00
2023-05-11T08:42:08.576Z,1139.00
2023-05-11T08:43:08.535Z,1130.00
2023-05-11T08:44:08.524Z,1119.00
2023-05-11T08:45:08.735Z,1105.00
2023-05-11T08:46:08.708Z,1098.00
2023-05-11T08:47:21.164Z,1107.00
2023-05-11T08:48:09.514Z,1127.00
2023-05-11T08:49:08.529Z,1139.00
2023-05-11T08:50:08.561Z,1170.00
2023-05-11T08:51:08.422Z,1181.00
2023-05-11T08:52:08.644Z,1209.00
2023-05-11T08:53:08.390Z,1239.00
2023-05-11T08:54:08.376Z,1254.00
2023-05-11T08:55:08.356Z,1328.00
2023-05-11T08:56:08.350Z,1308.00
2023-05-11T08:57:08.336Z,1312.00
2023-05-11T08:58:08.311Z,1314.00
2023-05-11T08:59:08.371Z,1325.00
2023-05-11T09:00:08.310Z,1339.00
2023-05-11T09:01:08.308Z,1346.00
2023-05-11T09:02:08.310Z,1349.00
2023-05-11T09:03:08.344Z,1375.00
2023-05-11T09:04:08.232Z,1373.00
2023-05-11T09:05:08.288Z,1381.00
2023-05-11T09:06:08.216Z,1438.00
2023-05-11T09:07:08.241Z,1440.00
2023-05-11T09:08:08.189Z,1445.00
2023-05-11T09:09:09.033Z,1447.00
2023-05-11T09:10:08.150Z,1458.00
2023-05-11T09:11:08.199Z,1483.00
2023-05-11T09:12:08.160Z,1517.00
2023-05-11T09:13:08.102Z,1519.00
2023-05-11T09:14:08.086Z,1497.00
2023-05-11T09:15:08.058Z,1528.00
2023-05-11T09:16:14.067Z,1538.00
2023-05-11T09:17:09.130Z,1555.00
2023-05-11T09:18:08.062Z,1549.00
2023-05-11T09:19:08.083Z,1545.00
2023-05-11T09:20:08.417Z,1547.00
2023-05-11T09:21:07.956Z,1554.00
2023-05-11T09:22:07.927Z,1584.00
2023-05-11T09:23:07.899Z,1575.00
2023-05-11T09:24:07.899Z,1578.00
2023-05-11T09:25:07.874Z,1592.00
2023-05-11T09:26:07.906Z,1617.00
2023-05-11T09:27:07.868Z,1621.00
2023-05-11T09:28:07.839Z,1632.00
2023-05-11T09:29:07.802Z,1631.00
2023-05-11T09:30:07.789Z,1648.00
2023-05-11T09:31:07.795Z,1636.00
2023-05-11T09:32:07.772Z,1634.00
2023-05-11T09:33:07.794Z,1659.00
2023-05-11T09:34:07.736Z,1684.00
2023-05-11T09:35:08.569Z,1674.00
2023-05-11T09:36:07.686Z,1678.00
2023-05-11T09:37:07.690Z,1676.00
2023-05-11T09:38:07.685Z,1694.00
2023-05-11T09:39:07.657Z,1809.00
2023-05-11T09:40:26.310Z,1827.00
2023-05-11T09:41:08.706Z,1834.00
2023-05-11T09:42:07.722Z,1821.00
2023-05-11T09:43:07.595Z,1697.00
2023-05-11T09:44:07.625Z,1807.00
2023-05-11T09:45:07.574Z,1731.00
2023-05-11T09:46:07.850Z,1398.00
2023-05-11T09:47:07.644Z,1354.00
2023-05-11T09:48:07.581Z,1352.00
2023-05-11T09:49:07.533Z,1418.00
2023-05-11T09:50:07.537Z,1445.00
2023-05-11T09:51:07.505Z,1451.00
2023-05-11T09:52:07.502Z,1456.00
2023-05-11T09:53:07.542Z,1453.00
2023-05-11T09:54:07.650Z,1447.00
2023-05-11T09:55:07.460Z,1433.00
2023-05-11T09:56:07.448Z,1424.00
2023-05-11T09:57:07.431Z,1427.00
2023-05-11T09:58:07.429Z,1432.00
2023-05-11T09:59:07.459Z,1427.00
2023-05-11T10:00:07.431Z,1419.00
2023-05-11T10:01:07.457Z,1457.00
2023-05-11T10:02:07.385Z,1465.00
2023-05-11T10:03:07.425Z,1463.00
2023-05-11T10:04:22.348Z,1439.00
2023-05-11T10:05:08.330Z,1442.00
2023-05-11T10:06:07.266Z,1447.00
2023-05-11T10:07:07.273Z,1456.00
2023-05-11T10:08:07.225Z,1466.00
2023-05-11T10:09:07.207Z,1467.00
2023-05-11T10:10:07.216Z,1476.00
2023-05-11T10:11:07.165Z,1483.00
2023-05-11T10:12:07.165Z,1479.00
2023-05-11T10:13:07.145Z,1489.00
2023-05-11T10:14:07.208Z,1522.00
2023-05-11T10:15:07.112Z,1511.00
2023-05-11T10:16:07.151Z,1493.00
2023-05-11T10:17:07.076Z,1500.00
2023-05-11T10:18:07.132Z,1504.00
2023-05-11T10:19:07.092Z,1507.00
2023-05-11T10:20:07.018Z,1514.00
2023-05-11T10:21:07.009Z,1514.00
2023-05-11T10:22:07.195Z,1516.00
2023-05-11T10:23:06.965Z,1507.00
2023-05-11T10:24:06.954Z,1508.00
2023-05-11T10:25:06.932Z,1509.00
2023-05-11T10:26:06.918Z,1503.00
2023-05-11T10:27:06.920Z,1504.00
2023-05-11T10:28:06.886Z,1506.00
2023-05-11T10:29:06.872Z,1514.00
2023-05-11T10:30:06.860Z,1527.00
2023-05-11T10:31:06.821Z,1530.00
2023-05-11T10:32:06.852Z,1520.00
2023-05-11T10:33:06.895Z,1521.00
2023-05-11T10:34:06.757Z,1523.00
2023-05-11T10:35:06.739Z,1526.00
2023-05-11T10:36:06.824Z,1577.00
2023-05-11T10:37:06.739Z,1593.00
2023-05-11T10:38:07.676Z,1507.00
2023-05-11T10:39:06.903Z,1105.00
2023-05-11T10:40:06.665Z,1331.00
2023-05-11T10:41:06.651Z,1417.00
2023-05-11T10:42:06.619Z,1515.00
2023-05-11T10:43:06.644Z,1333.00
2023-05-11T10:44:06.566Z,1221.00
2023-05-11T10:45:06.557Z,1189.00
2023-05-11T10:46:06.614Z,1381.00
2023-05-11T10:47:06.552Z,1376.00
2023-05-11T10:48:06.567Z,1433.00
2023-05-11T10:49:06.587Z,1283.00
2023-05-11T10:50:06.494Z,1301.00
2023-05-11T10:51:06.470Z,1303.00
2023-05-11T10:52:06.477Z,1294.00
2023-05-11T10:53:06.585Z,1296.00
2023-05-11T10:54:06.449Z,1310.00
2023-05-11T10:55:06.446Z,1303.00
2023-05-11T10:56:06.410Z,1298.00
2023-05-11T10:57:06.417Z,1291.00
2023-05-11T10:58:06.424Z,1294.00
2023-05-11T10:59:06.415Z,1298.00
2023-05-11T11:00:06.366Z,1317.00
2023-05-11T11:01:06.408Z,1302.00
2023-05-11T11:02:06.324Z,1299.00
2023-05-11T11:03:06.344Z,1296.00
2023-05-11T11:04:06.300Z,1297.00
2023-05-11T11:05:06.286Z,1346.00
2023-05-11T11:06:06.331Z,1288.00
2023-05-11T11:07:06.787Z,1295.00
2023-05-11T11:08:06.233Z,1285.00
2023-05-11T11:09:06.251Z,1278.00
2023-05-11T11:10:06.247Z,1286.00
2023-05-11T11:11:06.731Z,1379.00
2023-05-11T11:12:06.275Z,1359.00
2023-05-11T11:13:06.306Z,1324.00
2023-05-11T11:14:06.313Z,1302.00
2023-05-11T11:15:06.351Z,1305.00
2023-05-11T11:16:06.418Z,1392.00
2023-05-11T11:17:06.439Z,1332.00
2023-05-11T11:18:06.431Z,1315.00
2023-05-11T11:19:06.439Z,1304.00
2023-05-11T11:20:06.556Z,1294.00
2023-05-11T11:21:06.461Z,1296.00
2023-05-11T11:22:06.498Z,1308.00
2023-05-11T11:23:06.507Z,1305.00
2023-05-11T11:24:06.530Z,1301.00
2023-05-11T11:25:06.569Z,1294.00
2023-05-11T11:26:06.508Z,1291.00
2023-05-11T11:27:06.475Z,1350.00
2023-05-11T11:28:06.506Z,1353.00
2023-05-11T11:29:06.443Z,1350.00
2023-05-11T11:30:06.441Z,1340.00
2023-05-11T11:31:06.521Z,1329.00
2023-05-11T11:32:06.426Z,1319.00
2023-05-11T11:33:06.476Z,1321.00
2023-05-11T11:34:06.448Z,1321.00
2023-05-11T11:35:06.389Z,1313.00
2023-05-11T11:36:06.376Z,1300.00
2023-05-11T11:37:06.422Z,1280.00
2023-05-11T11:38:06.352Z,1276.00
2023-05-11T11:39:06.371Z,1268.00
2023-05-11T11:40:14.939Z,1258.00
2023-05-11T11:41:07.330Z,1235.00
2023-05-11T11:42:06.317Z,1220.00
2023-05-11T11:43:06.316Z,1209.00
2023-05-11T11:44:06.355Z,1209.00
2023-05-11T11:45:06.290Z,1195.00
2023-05-11T11:46:06.315Z,1179.00
2023-05-11T11:47:06.274Z,1173.00
2023-05-11T11:48:06.317Z,1162.00
2023-05-11T11:49:06.253Z,1154.00
2023-05-11T11:50:06.256Z,1147.00
2023-05-11T11:51:06.222Z,1139.00
2023-05-11T11:52:06.227Z,1129.00
2023-05-11T11:53:06.232Z,1124.00
2023-05-11T11:54:06.265Z,1115.00
2023-05-11T11:55:06.294Z,1107.00
2023-05-11T11:56:06.331Z,1102.00
2023-05-11T11:57:06.367Z,1088.00
2023-05-11T11:58:06.438Z,1083.00
2023-05-11T11:59:06.482Z,1078.00
2023-05-11T12:00:06.538Z,1071.00
2023-05-11T12:01:06.590Z,1069.00
2023-05-11T12:02:06.628Z,1059.00
2023-05-11T12:03:06.799Z,1050.00
2023-05-11T12:04:06.873Z,1044.00
2023-05-11T12:05:06.945Z,1040.00
2023-05-11T12:06:06.853Z,1035.00
2023-05-11T12:07:06.929Z,1029.00
2023-05-11T12:08:06.964Z,1021.00
2023-05-11T12:09:07.003Z,1018.00
2023-05-11T12:10:07.157Z,1010.00
2023-05-11T12:11:07.100Z,1006.00
2023-05-11T12:12:07.151Z,1004.00
2023-05-11T12:13:07.215Z,995.00
2023-05-11T12:14:07.255Z,992.00
2023-05-11T12:15:07.312Z,990.00
2023-05-11T12:16:07.469Z,988.00